createdAt,value
2017-03-04T00:01:04.311Z,998.35
2017-03-04T00:02:14.298Z,998.37
2017-03-04T00:03:24.669Z,998.35
2017-03-04T00:04:35.028Z,998.35
2017-03-04T00:05:45.767Z,998.33
2017-03-04T00:06:56.778Z,998.34
2017-03-04T00:08:06.771Z,998.3
2017-03-04T00:09:16.745Z,998.34
2017-03-04T00:10:27.099Z,998.34
2017-03-04T00:11:37.440Z,998.33
2017-03-04T00:12:48.448Z,998.31
2017-03-04T00:13:59.182Z,998.3
2017-03-04T00:15:09.972Z,998.31
2017-03-04T00:16:19.524Z,998.36
2017-03-04T00:17:30.279Z,998.36
2017-03-04T00:18:40.906Z,998.39
2017-03-04T00:19:51.655Z,998.37
2017-03-04T00:21:02.012Z,998.37
2017-03-04T00:22:12.787Z,998.35
2017-03-04T00:23:23.159Z,998.4
2017-03-04T00:24:34.196Z,998.42
2017-03-04T00:25:44.970Z,998.46
2017-03-04T00:26:55.741Z,998.44
2017-03-04T00:28:06.500Z,998.46
2017-03-04T00:29:17.255Z,998.43
2017-03-04T00:30:27.849Z,998.42
2017-03-04T00:31:38.218Z,998.38
2017-03-04T00:32:48.162Z,998.37
2017-03-04T00:33:58.560Z,998.35
2017-03-04T00:35:09.339Z,998.33
2017-03-04T00:36:20.357Z,998.33
2017-03-04T00:37:30.734Z,998.31
2017-03-04T00:38:40.349Z,998.29
2017-03-04T00:39:50.717Z,998.31
2017-03-04T00:41:01.100Z,998.33
2017-03-04T00:42:12.102Z,998.35
2017-03-04T00:43:22.861Z,998.31
2017-03-04T00:44:33.216Z,998.3
2017-03-04T00:45:43.991Z,998.32
2017-03-04T00:46:54.750Z,998.35
2017-03-04T00:48:04.618Z,998.32
2017-03-04T00:49:15.368Z,998.35
2017-03-04T00:50:25.719Z,998.31
2017-03-04T00:51:35.290Z,998.33
2017-03-04T00:52:45.661Z,998.26
2017-03-04T00:53:56.336Z,998.29
2017-03-04T00:55:06.800Z,998.28
2017-03-04T00:56:17.162Z,998.26
2017-03-04T00:57:27.923Z,998.31
2017-03-04T00:58:38.929Z,998.3
2017-03-04T00:59:48.737Z,998.27
2017-03-04T01:00:59.082Z,998.27
2017-03-04T01:02:09.456Z,998.21
2017-03-04T01:03:19.828Z,998.23
2017-03-04T01:04:30.567Z,998.21
2017-03-04T01:05:41.180Z,998.23
2017-03-04T01:06:51.519Z,998.21
2017-03-04T01:08:01.908Z,998.21
2017-03-04T01:09:11.873Z,998.19
2017-03-04T01:10:22.267Z,998.18
2017-03-04T01:11:32.920Z,998.2
2017-03-04T01:12:43.681Z,998.17
2017-03-04T01:13:53.669Z,998.2
2017-03-04T01:15:04.032Z,998.17
2017-03-04T01:16:14.432Z,998.15
2017-03-04T01:17:25.437Z,998.12
2017-03-04T01:18:35.418Z,998.11
2017-03-04T01:19:46.180Z,998.08
2017-03-04T01:20:56.928Z,998.07
2017-03-04T01:22:07.280Z,998.06
2017-03-04T01:23:17.482Z,998.04
2017-03-04T01:24:27.431Z,998.04
2017-03-04T01:25:38.208Z,997.96
2017-03-04T01:26:48.954Z,997.96
2017-03-04T01:27:59.714Z,997.87
2017-03-04T01:29:09.923Z,997.84
2017-03-04T01:30:19.898Z,997.82
2017-03-04T01:31:30.646Z,997.83
2017-03-04T01:32:40.986Z,997.83
2017-03-04T01:33:51.741Z,997.77
2017-03-04T01:35:02.756Z,997.81
2017-03-04T01:36:13.501Z,997.79
2017-03-04T01:37:24.247Z,997.76
2017-03-04T01:38:34.611Z,997.77
2017-03-04T01:39:45.385Z,997.79
2017-03-04T01:40:56.384Z,997.76
2017-03-04T01:42:07.127Z,997.73
2017-03-04T01:43:17.876Z,997.74
2017-03-04T01:44:28.231Z,997.71
2017-03-04T01:45:38.599Z,997.7
2017-03-04T01:46:49.278Z,997.65
2017-03-04T01:47:59.627Z,997.68
2017-03-04T01:49:10.012Z,997.68
2017-03-04T01:50:20.360Z,997.74
2017-03-04T01:51:30.707Z,997.68
2017-03-04T01:52:41.737Z,997.71
2017-03-04T01:53:52.468Z,997.69
2017-03-04T01:55:02.806Z,997.64
2017-03-04T01:56:13.254Z,997.62
2017-03-04T01:57:24.013Z,997.53
2017-03-04T01:58:34.624Z,997.54
2017-03-04T01:59:44.991Z,997.54
2017-03-04T02:00:55.756Z,997.56
2017-03-04T02:02:06.083Z,997.54
2017-03-04T02:03:16.144Z,997.48
2017-03-04T02:04:26.399Z,997.47
2017-03-04T02:05:37.148Z,997.46
2017-03-04T02:06:47.123Z,997.43
2017-03-04T02:07:57.523Z,997.37
2017-03-04T02:09:08.281Z,997.41
2017-03-04T02:10:18.495Z,997.39
2017-03-04T02:11:27.644Z,997.36
2017-03-04T02:12:38.381Z,997.43
2017-03-04T02:13:49.132Z,997.41
2017-03-04T02:14:59.493Z,997.38
2017-03-04T02:16:10.559Z,997.33
2017-03-04T02:17:20.908Z,997.35
2017-03-04T02:18:31.715Z,997.33
2017-03-04T02:19:42.451Z,997.31
2017-03-04T02:20:52.808Z,997.31
2017-03-04T02:22:03.804Z,997.31
2017-03-04T02:23:14.162Z,997.31
2017-03-04T02:24:24.898Z,997.33
2017-03-04T02:25:35.272Z,997.33
2017-03-04T02:26:45.254Z,997.37
2017-03-04T02:27:56.418Z,997.3
2017-03-04T02:29:07.189Z,997.3
2017-03-04T02:30:17.970Z,997.37
2017-03-04T02:31:28.322Z,997.34
2017-03-04T02:32:38.664Z,997.34
2017-03-04T02:33:49.688Z,997.3
2017-03-04T02:35:00.041Z,997.3
2017-03-04T02:36:10.374Z,997.32
2017-03-04T02:37:19.943Z,997.35
2017-03-04T02:38:29.122Z,997.34
2017-03-04T02:39:39.724Z,997.35
2017-03-04T02:40:50.479Z,997.3
2017-03-04T02:42:00.505Z,997.27
2017-03-04T02:43:11.277Z,997.21
2017-03-04T02:44:21.621Z,997.23
2017-03-04T02:45:32.668Z,997.16
2017-03-04T02:46:43.019Z,997.21
2017-03-04T02:47:53.359Z,997.21
2017-03-04T02:49:04.114Z,997.2
2017-03-04T02:50:14.860Z,997.2
2017-03-04T02:51:25.081Z,997.19
2017-03-04T02:52:35.052Z,997.17
2017-03-04T02:53:45.411Z,997.16
2017-03-04T02:54:55.774Z,997.13
2017-03-04T02:56:06.188Z,997.17
2017-03-04T02:57:16.803Z,997.15
2017-03-04T02:58:27.579Z,997.14
2017-03-04T02:59:37.538Z,997.11
2017-03-04T03:00:48.307Z,997.15
2017-03-04T03:01:59.064Z,997.09
2017-03-04T03:03:09.703Z,997.1
2017-03-04T03:04:20.316Z,997.05
2017-03-04T03:05:30.284Z,997.01
2017-03-04T03:06:41.084Z,997.05
2017-03-04T03:07:51.453Z,997.01
2017-03-04T03:09:01.676Z,997
2017-03-04T03:10:11.634Z,996.99
2017-03-04T03:11:22.416Z,996.9
2017-03-04T03:12:32.412Z,996.89
2017-03-04T03:13:42.777Z,996.88
2017-03-04T03:14:53.378Z,996.83
2017-03-04T03:16:04.134Z,996.84
2017-03-04T03:17:14.889Z,996.84
2017-03-04T03:18:25.635Z,996.81
2017-03-04T03:19:36.037Z,996.8
2017-03-04T03:20:46.639Z,996.79
2017-03-04T03:21:56.998Z,996.82
2017-03-04T03:23:07.760Z,996.81
2017-03-04T03:24:18.515Z,996.82
2017-03-04T03:25:28.467Z,996.83
2017-03-04T03:26:38.297Z,996.81
2017-03-04T03:27:48.659Z,996.83
2017-03-04T03:28:59.417Z,996.79
2017-03-04T03:30:10.163Z,996.81
2017-03-04T03:31:20.499Z,996.78
2017-03-04T03:32:31.546Z,996.8
2017-03-04T03:33:42.291Z,996.74
2017-03-04T03:34:53.155Z,996.73
2017-03-04T03:36:03.494Z,996.71
2017-03-04T03:37:13.475Z,996.71
2017-03-04T03:38:24.094Z,996.66
2017-03-04T03:39:34.452Z,996.65
2017-03-04T03:40:44.823Z,996.68
2017-03-04T03:41:55.587Z,996.6
2017-03-04T03:43:06.368Z,996.63
2017-03-04T03:44:17.370Z,996.61
2017-03-04T03:45:27.719Z,996.63
2017-03-04T03:46:38.506Z,996.61
2017-03-04T03:47:48.463Z,996.63
2017-03-04T03:48:59.209Z,996.6
2017-03-04T03:50:10.289Z,996.65
2017-03-04T03:51:20.661Z,996.66
2017-03-04T03:52:31.008Z,996.64
2017-03-04T03:53:40.980Z,996.63
2017-03-04T03:54:51.347Z,996.68
2017-03-04T03:56:02.401Z,996.61
2017-03-04T03:57:12.776Z,996.64
2017-03-04T03:58:23.545Z,996.61
2017-03-04T03:59:34.285Z,996.59
2017-03-04T04:00:44.653Z,996.61
2017-03-04T04:01:54.864Z,996.59
2017-03-04T04:03:05.622Z,996.6
2017-03-04T04:04:15.971Z,996.6
2017-03-04T04:05:26.336Z,996.61
2017-03-04T04:06:37.089Z,996.57
2017-03-04T04:07:47.352Z,996.57
2017-03-04T04:08:57.767Z,996.56
2017-03-04T04:10:08.106Z,996.5
2017-03-04T04:11:18.445Z,996.48
2017-03-04T04:12:29.198Z,996.46
2017-03-04T04:13:40.241Z,996.45
2017-03-04T04:14:50.973Z,996.45
2017-03-04T04:16:01.722Z,996.43
2017-03-04T04:17:12.477Z,996.38
2017-03-04T04:18:22.435Z,996.38
2017-03-04T04:19:33.427Z,996.36
2017-03-04T04:20:44.169Z,996.38
2017-03-04T04:21:55.030Z,996.42
2017-03-04T04:23:05.402Z,996.43
2017-03-04T04:24:16.272Z,996.45
2017-03-04T04:25:27.272Z,996.36
2017-03-04T04:26:38.016Z,996.38
2017-03-04T04:27:48.748Z,996.32
2017-03-04T04:28:59.097Z,996.3
2017-03-04T04:30:09.831Z,996.33
2017-03-04T04:31:20.086Z,996.31
2017-03-04T04:32:30.451Z,996.32
2017-03-04T04:33:40.407Z,996.33
2017-03-04T04:34:50.390Z,996.33
2017-03-04T04:36:00.365Z,996.3
2017-03-04T04:37:11.369Z,996.29
2017-03-04T04:38:21.344Z,996.29
2017-03-04T04:39:32.099Z,996.27
2017-03-04T04:40:42.860Z,996.23
2017-03-04T04:41:53.590Z,996.25
2017-03-04T04:43:04.195Z,996.24
2017-03-04T04:44:14.546Z,996.26
2017-03-04T04:45:24.505Z,996.3
2017-03-04T04:46:35.260Z,996.29
2017-03-04T04:47:45.632Z,996.33
2017-03-04T04:48:55.843Z,996.3
2017-03-04T04:50:06.627Z,996.3
2017-03-04T04:51:17.366Z,996.27
2017-03-04T04:52:28.127Z,996.27
2017-03-04T04:53:38.866Z,996.22
2017-03-04T04:54:49.446Z,996.22
2017-03-04T04:55:59.391Z,996.19
2017-03-04T04:57:09.734Z,996.15
2017-03-04T04:58:20.083Z,996.15
2017-03-04T04:59:30.428Z,996.13
2017-03-04T05:00:41.420Z,996.09
2017-03-04T05:01:52.175Z,996.08
2017-03-04T05:03:02.911Z,996.1
2017-03-04T05:04:12.847Z,996.01
2017-03-04T05:05:22.812Z,996.06
2017-03-04T05:06:33.416Z,996.03
2017-03-04T05:07:43.353Z,996.08
2017-03-04T05:08:54.105Z,996.1
2017-03-04T05:10:04.466Z,996.07
2017-03-04T05:11:14.811Z,996.08
2017-03-04T05:12:25.420Z,996.12
2017-03-04T05:13:35.775Z,996.09
2017-03-04T05:14:46.533Z,996.08
2017-03-04T05:15:57.279Z,996.12
2017-03-04T05:17:07.218Z,996.12
2017-03-04T05:18:17.855Z,996.12
2017-03-04T05:19:28.617Z,996.17
2017-03-04T05:20:38.582Z,996.16
2017-03-04T05:21:48.924Z,996.16
2017-03-04T05:22:58.892Z,996.17
2017-03-04T05:24:09.881Z,996.2
2017-03-04T05:25:20.227Z,996.15
2017-03-04T05:26:29.799Z,996.11
2017-03-04T05:27:40.133Z,996.1
2017-03-04T05:28:50.086Z,996.05
2017-03-04T05:30:00.707Z,996.03
2017-03-04T05:31:10.270Z,996.02
2017-03-04T05:32:21.044Z,996.04
2017-03-04T05:33:30.994Z,996.04
2017-03-04T05:34:40.956Z,996.06
2017-03-04T05:35:51.955Z,996.04
2017-03-04T05:37:01.943Z,996.07
2017-03-04T05:38:12.287Z,996.02
2017-03-04T05:39:22.635Z,996.03
2017-03-04T05:40:33.388Z,996
2017-03-04T05:41:44.019Z,995.96
2017-03-04T05:42:54.754Z,995.97
2017-03-04T05:44:05.258Z,995.97
2017-03-04T05:45:15.602Z,995.97
2017-03-04T05:46:26.364Z,995.93
2017-03-04T05:47:36.976Z,995.96
2017-03-04T05:48:46.923Z,995.92
2017-03-04T05:49:57.685Z,995.89
2017-03-04T05:51:08.060Z,995.9
2017-03-04T05:52:18.421Z,995.87
2017-03-04T05:53:28.678Z,995.86
2017-03-04T05:54:39.435Z,995.88
2017-03-04T05:55:49.421Z,995.9
2017-03-04T05:56:59.802Z,995.9
2017-03-04T05:58:09.753Z,995.85
2017-03-04T05:59:20.402Z,995.85
2017-03-04T06:00:30.745Z,995.88
2017-03-04T06:01:41.112Z,995.86
2017-03-04T06:02:51.462Z,995.86
2017-03-04T06:04:01.849Z,995.88
2017-03-04T06:05:13.112Z,995.86
2017-03-04T06:06:23.868Z,995.83
2017-03-04T06:07:34.607Z,995.8
2017-03-04T06:08:44.988Z,995.79
2017-03-04T06:09:55.346Z,995.79
2017-03-04T06:11:05.993Z,995.83
2017-03-04T06:12:16.744Z,995.81
2017-03-04T06:13:27.487Z,995.84
2017-03-04T06:14:38.233Z,995.92
2017-03-04T06:15:48.981Z,995.95
2017-03-04T06:16:59.593Z,995.91
2017-03-04T06:18:10.367Z,995.94
2017-03-04T06:19:20.345Z,995.89
2017-03-04T06:20:30.690Z,995.91
2017-03-04T06:21:41.048Z,995.83
2017-03-04T06:22:52.050Z,995.88
2017-03-04T06:24:02.415Z,995.85
2017-03-04T06:25:13.186Z,995.82
2017-03-04T06:26:22.784Z,995.87
2017-03-04T06:27:33.151Z,995.85
2017-03-04T06:28:43.797Z,995.81
2017-03-04T06:29:54.553Z,995.79
2017-03-04T06:31:05.331Z,995.74
2017-03-04T06:32:15.763Z,995.74
2017-03-04T06:33:26.502Z,995.79
2017-03-04T06:34:36.528Z,995.78
2017-03-04T06:35:46.882Z,995.78
2017-03-04T06:36:56.831Z,995.76
2017-03-04T06:38:07.209Z,995.75
2017-03-04T06:39:17.961Z,995.79
2017-03-04T06:40:28.610Z,995.74
2017-03-04T06:41:38.984Z,995.75
2017-03-04T06:42:49.343Z,995.69
2017-03-04T06:43:58.920Z,995.72
2017-03-04T06:45:08.873Z,995.75
2017-03-04T06:46:19.554Z,995.75
2017-03-04T06:47:29.906Z,995.79
2017-03-04T06:48:39.893Z,995.81
2017-03-04T06:49:50.240Z,995.79
2017-03-04T06:51:00.995Z,995.79
2017-03-04T06:52:11.993Z,995.77
2017-03-04T06:53:22.752Z,995.77
2017-03-04T06:54:33.122Z,995.83
2017-03-04T06:55:43.497Z,995.82
2017-03-04T06:56:54.233Z,995.76
2017-03-04T06:58:05.234Z,995.79
2017-03-04T06:59:15.989Z,995.82
2017-03-04T07:00:26.332Z,995.8
2017-03-04T07:01:36.694Z,995.79
2017-03-04T07:02:47.080Z,995.8
2017-03-04T07:03:58.106Z,995.8
2017-03-04T07:05:08.457Z,995.72
2017-03-04T07:06:18.799Z,995.76
2017-03-04T07:07:29.154Z,995.76
2017-03-04T07:08:39.136Z,995.77
2017-03-04T07:09:50.153Z,995.73
2017-03-04T07:10:59.778Z,995.71
2017-03-04T07:12:10.173Z,995.73
2017-03-04T07:13:20.529Z,995.75
2017-03-04T07:14:30.488Z,995.79
2017-03-04T07:15:41.561Z,995.73
2017-03-04T07:16:52.313Z,995.76
2017-03-04T07:18:02.669Z,995.73
2017-03-04T07:19:13.421Z,995.71
2017-03-04T07:20:23.794Z,995.72
2017-03-04T07:21:34.450Z,995.73
2017-03-04T07:22:45.209Z,995.67
2017-03-04T07:23:55.560Z,995.66
2017-03-04T07:25:06.310Z,995.7
2017-03-04T07:26:16.289Z,995.7
2017-03-04T07:27:27.529Z,995.72
2017-03-04T07:28:37.877Z,995.71
2017-03-04T07:29:48.646Z,995.7
2017-03-04T07:30:58.989Z,995.7
2017-03-04T07:32:09.355Z,995.7
2017-03-04T07:33:19.967Z,995.69
2017-03-04T07:34:30.316Z,995.67
2017-03-04T07:35:40.693Z,995.59
2017-03-04T07:36:51.033Z,995.56
2017-03-04T07:38:01.382Z,995.56
2017-03-04T07:39:12.003Z,995.59
2017-03-04T07:40:22.774Z,995.61
2017-03-04T07:41:33.151Z,995.61
2017-03-04T07:42:43.145Z,995.6
2017-03-04T07:43:53.929Z,995.59
2017-03-04T07:45:04.537Z,995.47
2017-03-04T07:46:14.499Z,995.48
2017-03-04T07:47:24.886Z,995.46
2017-03-04T07:48:35.625Z,995.44
2017-03-04T07:49:45.583Z,995.42
2017-03-04T07:50:56.265Z,995.47
2017-03-04T07:52:07.015Z,995.44
2017-03-04T07:53:16.994Z,995.46
2017-03-04T07:54:27.413Z,995.49
2017-03-04T07:55:37.798Z,995.45
2017-03-04T07:56:48.793Z,995.46
2017-03-04T07:57:59.135Z,995.47
2017-03-04T07:59:09.522Z,995.41
2017-03-04T08:00:19.528Z,995.43
2017-03-04T08:01:29.899Z,995.45
2017-03-04T08:02:40.907Z,995.43
2017-03-04T08:03:50.873Z,995.44
2017-03-04T08:05:01.651Z,995.45
2017-03-04T08:06:12.411Z,995.45
2017-03-04T08:07:22.785Z,995.42
2017-03-04T08:08:33.852Z,995.41
2017-03-04T08:09:44.629Z,995.42
2017-03-04T08:10:55.374Z,995.41
2017-03-04T08:12:06.123Z,995.4
2017-03-04T08:13:16.870Z,995.35
2017-03-04T08:14:27.880Z,995.34
2017-03-04T08:15:38.232Z,995.3
2017-03-04T08:16:48.990Z,995.36
2017-03-04T08:17:59.733Z,995.31
2017-03-04T08:19:10.512Z,995.31
2017-03-04T08:20:21.564Z,995.32
2017-03-04T08:21:32.294Z,995.29
2017-03-04T08:22:43.039Z,995.29
2017-03-04T08:23:52.997Z,995.35
2017-03-04T08:25:02.977Z,995.35
2017-03-04T08:26:13.589Z,995.33
2017-03-04T08:27:24.351Z,995.3
2017-03-04T08:28:34.299Z,995.31
2017-03-04T08:29:45.042Z,995.26
2017-03-04T08:30:55.406Z,995.27
2017-03-04T08:32:05.615Z,995.28
2017-03-04T08:33:16.377Z,995.27
2017-03-04T08:34:27.161Z,995.27
2017-03-04T08:35:37.522Z,995.28
2017-03-04T08:36:48.335Z,995.26
2017-03-04T08:37:58.988Z,995.25
2017-03-04T08:39:08.617Z,995.22
2017-03-04T08:40:19.405Z,995.27
2017-03-04T08:41:30.159Z,995.25
2017-03-04T08:42:40.211Z,995.22
2017-03-04T08:43:50.814Z,995.22
2017-03-04T08:45:01.421Z,995.24
2017-03-04T08:46:12.217Z,995.25
2017-03-04T08:47:22.981Z,995.24
2017-03-04T08:48:33.753Z,995.25
2017-03-04T08:49:44.348Z,995.22
2017-03-04T08:50:54.700Z,995.23
2017-03-04T08:52:05.462Z,995.16
2017-03-04T08:53:15.423Z,995.23
2017-03-04T08:54:26.178Z,995.22
2017-03-04T08:55:37.238Z,995.25
2017-03-04T08:56:47.587Z,995.25
2017-03-04T08:57:57.954Z,995.21
2017-03-04T08:59:07.951Z,995.19
2017-03-04T09:00:18.316Z,995.19
2017-03-04T09:01:28.938Z,995.18
2017-03-04T09:02:38.888Z,995.17
2017-03-04T09:03:48.879Z,995.15
2017-03-04T09:04:59.672Z,995.14
2017-03-04T09:06:10.140Z,995.13
2017-03-04T09:07:21.190Z,995.12
2017-03-04T09:08:31.954Z,995.11
2017-03-04T09:09:41.119Z,995.1
2017-03-04T09:10:51.891Z,995.1
2017-03-04T09:12:02.617Z,995.09
2017-03-04T09:13:13.387Z,995.09
2017-03-04T09:14:23.752Z,995.03
2017-03-04T09:15:33.721Z,995.02
2017-03-04T09:16:44.469Z,995.03
2017-03-04T09:17:55.247Z,995
2017-03-04T09:19:05.837Z,994.99
2017-03-04T09:20:15.839Z,995
2017-03-04T09:21:26.220Z,994.99
2017-03-04T09:22:36.972Z,995
2017-03-04T09:23:47.359Z,994.97
2017-03-04T09:24:57.635Z,994.97
2017-03-04T09:26:07.993Z,994.96
2017-03-04T09:27:18.390Z,994.96
2017-03-04T09:28:29.149Z,994.93
2017-03-04T09:29:39.494Z,994.93
2017-03-04T09:30:50.080Z,994.93
2017-03-04T09:32:00.448Z,994.9
2017-03-04T09:33:10.412Z,994.84
2017-03-04T09:34:20.768Z,994.87
2017-03-04T09:35:31.516Z,994.87
2017-03-04T09:36:41.795Z,994.84
2017-03-04T09:37:52.163Z,994.85
2017-03-04T09:39:02.543Z,994.84
2017-03-04T09:40:12.911Z,994.81
2017-03-04T09:41:23.673Z,994.8
2017-03-04T09:42:34.351Z,994.81
2017-03-04T09:43:45.104Z,994.76
2017-03-04T09:44:55.060Z,994.76
2017-03-04T09:46:05.426Z,994.81
2017-03-04T09:47:16.204Z,994.77
2017-03-04T09:48:27.247Z,994.8
2017-03-04T09:49:37.622Z,994.78
2017-03-04T09:50:47.980Z,994.73
2017-03-04T09:51:58.720Z,994.73
2017-03-04T09:53:09.063Z,994.79
2017-03-04T09:54:19.314Z,994.76
2017-03-04T09:55:29.276Z,994.72
2017-03-04T09:56:40.028Z,994.69
2017-03-04T09:57:50.786Z,994.72
2017-03-04T09:59:00.784Z,994.65
2017-03-04T10:00:11.491Z,994.64
2017-03-04T10:01:22.262Z,994.66
2017-03-04T10:02:33.027Z,994.68
2017-03-04T10:03:43.405Z,994.66
2017-03-04T10:04:54.166Z,994.64
2017-03-04T10:06:04.809Z,994.63
2017-03-04T10:07:14.793Z,994.67
2017-03-04T10:08:25.200Z,994.6
2017-03-04T10:09:35.165Z,994.53
2017-03-04T10:10:45.126Z,994.54
2017-03-04T10:11:56.208Z,994.52
2017-03-04T10:13:06.544Z,994.55
2017-03-04T10:14:16.899Z,994.46
2017-03-04T10:15:27.277Z,994.49
2017-03-04T10:16:36.847Z,994.51
2017-03-04T10:17:47.091Z,994.51
2017-03-04T10:18:57.462Z,994.52
2017-03-04T10:20:07.858Z,994.56
2017-03-04T10:21:18.649Z,994.54
2017-03-04T10:22:29.055Z,994.56
2017-03-04T10:23:39.696Z,994.54
2017-03-04T10:24:50.473Z,994.56
2017-03-04T10:26:00.969Z,994.57
2017-03-04T10:27:11.318Z,994.47
2017-03-04T10:28:20.892Z,994.46
2017-03-04T10:29:31.559Z,994.42
2017-03-04T10:30:42.317Z,994.4
2017-03-04T10:31:52.295Z,994.41
2017-03-04T10:33:03.049Z,994.41
2017-03-04T10:34:13.810Z,994.4
2017-03-04T10:35:24.825Z,994.39
2017-03-04T10:36:35.181Z,994.36
2017-03-04T10:37:45.170Z,994.34
2017-03-04T10:38:55.936Z,994.35
2017-03-04T10:40:06.295Z,994.34
2017-03-04T10:41:16.909Z,994.33
2017-03-04T10:42:27.267Z,994.33
2017-03-04T10:43:38.035Z,994.3
2017-03-04T10:44:48.390Z,994.33
2017-03-04T10:45:59.158Z,994.35
2017-03-04T10:47:10.239Z,994.33
2017-03-04T10:48:20.198Z,994.33
2017-03-04T10:49:29.766Z,994.33
2017-03-04T10:50:40.541Z,994.33
2017-03-04T10:51:50.916Z,994.25
2017-03-04T10:53:01.927Z,994.26
2017-03-04T10:54:12.713Z,994.26
2017-03-04T10:55:23.500Z,994.19
2017-03-04T10:56:33.866Z,994.16
2017-03-04T10:57:43.467Z,994.15
2017-03-04T10:58:53.285Z,994.17
2017-03-04T11:00:04.051Z,994.15
2017-03-04T11:01:14.041Z,994.18
2017-03-04T11:02:24.816Z,994.17
2017-03-04T11:03:35.173Z,994.11
2017-03-04T11:04:45.801Z,994.13
2017-03-04T11:05:56.202Z,994.07
2017-03-04T11:07:06.166Z,994.05
2017-03-04T11:08:16.537Z,994.05
2017-03-04T11:09:27.292Z,994.04
2017-03-04T11:10:38.314Z,994.04
2017-03-04T11:11:48.685Z,994.06
2017-03-04T11:12:58.656Z,994.03
2017-03-04T11:14:09.439Z,993.97
2017-03-04T11:15:19.773Z,993.95
2017-03-04T11:16:30.435Z,993.96
2017-03-04T11:17:41.159Z,993.95
2017-03-04T11:18:51.136Z,993.95
2017-03-04T11:20:01.492Z,993.92
2017-03-04T11:21:12.112Z,993.88
2017-03-04T11:22:22.713Z,993.89
2017-03-04T11:23:32.678Z,993.86
2017-03-04T11:24:43.047Z,993.86
2017-03-04T11:25:53.830Z,993.87
2017-03-04T11:27:04.204Z,993.88
2017-03-04T11:28:15.276Z,993.83
2017-03-04T11:29:25.635Z,993.81
2017-03-04T11:30:36.093Z,993.78
2017-03-04T11:31:46.858Z,993.76
2017-03-04T11:32:57.218Z,993.71
2017-03-04T11:34:07.811Z,993.72
2017-03-04T11:35:18.156Z,993.72
2017-03-04T11:36:28.927Z,993.7
2017-03-04T11:37:39.282Z,993.68
2017-03-04T11:38:49.683Z,993.65
2017-03-04T11:40:00.326Z,993.66
2017-03-04T11:41:11.078Z,993.61
2017-03-04T11:42:21.468Z,993.6
2017-03-04T11:43:31.833Z,993.62
2017-03-04T11:44:42.588Z,993.59
2017-03-04T11:45:53.244Z,993.61
2017-03-04T11:47:03.600Z,993.6
2017-03-04T11:48:13.954Z,993.55
2017-03-04T11:49:24.745Z,993.58
2017-03-04T11:50:35.519Z,993.56
2017-03-04T11:51:46.153Z,993.53
2017-03-04T11:52:56.514Z,993.48
2017-03-04T11:54:06.489Z,993.56
2017-03-04T11:55:16.850Z,993.53
2017-03-04T11:56:27.618Z,993.48
2017-03-04T11:57:38.252Z,993.49
2017-03-04T11:58:49.016Z,993.47
2017-03-04T11:59:59.379Z,993.48
2017-03-04T12:01:10.150Z,993.47
2017-03-04T12:02:20.501Z,993.42
2017-03-04T12:03:31.120Z,993.4
2017-03-04T12:04:41.507Z,993.42
2017-03-04T12:05:51.864Z,993.37
2017-03-04T12:07:02.227Z,993.38
2017-03-04T12:08:12.626Z,993.37
2017-03-04T12:09:23.301Z,993.34
2017-03-04T12:10:33.679Z,993.35
2017-03-04T12:11:44.466Z,993.3
2017-03-04T12:12:54.040Z,993.32
2017-03-04T12:14:04.799Z,993.25
2017-03-04T12:15:15.861Z,993.25
2017-03-04T12:16:26.622Z,993.26
2017-03-04T12:17:37.378Z,993.2
2017-03-04T12:18:48.142Z,993.18
2017-03-04T12:19:58.107Z,993.17
2017-03-04T12:21:08.723Z,993.15
2017-03-04T12:22:19.517Z,993.15
2017-03-04T12:23:30.289Z,993.11
2017-03-04T12:24:40.625Z,993.11
2017-03-04T12:25:51.394Z,993.05
2017-03-04T12:27:02.408Z,993.05
2017-03-04T12:28:12.796Z,993.02
2017-03-04T12:29:23.550Z,992.99
2017-03-04T12:30:33.519Z,992.97
2017-03-04T12:31:43.531Z,992.99
2017-03-04T12:32:54.162Z,992.95
2017-03-04T12:34:04.579Z,992.96
2017-03-04T12:35:14.156Z,992.93
2017-03-04T12:36:24.933Z,992.91
2017-03-04T12:37:34.911Z,992.85
2017-03-04T12:38:45.598Z,992.89
2017-03-04T12:39:55.964Z,992.8
2017-03-04T12:41:06.743Z,992.83
2017-03-04T12:42:16.707Z,992.8
2017-03-04T12:43:27.476Z,992.81
2017-03-04T12:44:38.488Z,992.83
2017-03-04T12:45:49.294Z,992.8
2017-03-04T12:47:00.036Z,992.73
2017-03-04T12:48:10.401Z,992.74
2017-03-04T12:49:21.166Z,992.76
2017-03-04T12:50:31.745Z,992.76
2017-03-04T12:51:42.501Z,992.67
2017-03-04T12:52:53.268Z,992.71
2017-03-04T12:54:03.640Z,992.69
2017-03-04T12:55:14.437Z,992.71
2017-03-04T12:56:25.515Z,992.7
2017-03-04T12:57:36.268Z,992.68
2017-03-04T12:58:46.625Z,992.66
2017-03-04T12:59:56.980Z,992.65
2017-03-04T13:01:07.772Z,992.67
2017-03-04T13:02:18.776Z,992.63
2017-03-04T13:03:29.130Z,992.6
2017-03-04T13:04:39.511Z,992.57
2017-03-04T13:05:49.206Z,992.54
2017-03-04T13:06:59.557Z,992.51
2017-03-04T13:08:09.827Z,992.48
2017-03-04T13:09:20.610Z,992.48
2017-03-04T13:10:31.370Z,992.48
2017-03-04T13:11:42.124Z,992.46
2017-03-04T13:12:52.900Z,992.4
2017-03-04T13:14:03.520Z,992.39
2017-03-04T13:15:13.909Z,992.42
2017-03-04T13:16:24.284Z,992.44
2017-03-04T13:17:34.657Z,992.4
2017-03-04T13:18:45.039Z,992.38
2017-03-04T13:19:55.649Z,992.37
2017-03-04T13:21:06.399Z,992.4
2017-03-04T13:22:16.751Z,992.44
2017-03-04T13:23:27.519Z,992.41
2017-03-04T13:24:37.909Z,992.41
2017-03-04T13:25:48.949Z,992.35
2017-03-04T13:26:59.301Z,992.35
2017-03-04T13:28:10.053Z,992.36
2017-03-04T13:29:20.497Z,992.33
2017-03-04T13:30:30.889Z,992.36
2017-03-04T13:31:41.547Z,992.35
2017-03-04T13:32:52.343Z,992.25
2017-03-04T13:34:03.118Z,992.25
2017-03-04T13:35:13.132Z,992.28
2017-03-04T13:36:23.490Z,992.27
2017-03-04T13:37:34.545Z,992.25
2017-03-04T13:38:45.298Z,992.22
2017-03-04T13:39:54.856Z,992.23
2017-03-04T13:41:05.662Z,992.27
2017-03-04T13:42:16.014Z,992.23
2017-03-04T13:43:26.670Z,992.26
2017-03-04T13:44:37.034Z,992.25
2017-03-04T13:45:47.403Z,992.27
2017-03-04T13:46:57.768Z,992.24
2017-03-04T13:48:08.123Z,992.2
2017-03-04T13:49:18.747Z,992.24
2017-03-04T13:50:29.485Z,992.21
2017-03-04T13:51:39.490Z,992.22
2017-03-04T13:52:49.857Z,992.2
2017-03-04T13:54:00.648Z,992.21
2017-03-04T13:55:10.901Z,992.21
2017-03-04T13:56:21.261Z,992.19
2017-03-04T13:57:32.017Z,992.16
2017-03-04T13:58:42.764Z,992.13
2017-03-04T13:59:52.735Z,992.1
2017-03-04T14:01:02.554Z,992.11
2017-03-04T14:02:12.513Z,992.08
2017-03-04T14:03:22.475Z,992.1
2017-03-04T14:04:33.237Z,992.06
2017-03-04T14:05:43.208Z,992.08
2017-03-04T14:06:53.691Z,992.06
2017-03-04T14:08:03.654Z,992.05
2017-03-04T14:09:14.447Z,992.04
2017-03-04T14:10:25.189Z,992.01
2017-03-04T14:11:34.757Z,991.97
2017-03-04T14:12:45.809Z,991.99
2017-03-04T14:13:55.763Z,992
2017-03-04T14:15:06.527Z,991.98
2017-03-04T14:16:17.295Z,992
2017-03-04T14:17:27.659Z,991.99
2017-03-04T14:18:38.731Z,992
2017-03-04T14:19:49.091Z,992.02
2017-03-04T14:20:59.835Z,992.05
2017-03-04T14:22:10.229Z,992.04
2017-03-04T14:23:20.597Z,992.05
2017-03-04T14:24:31.276Z,992.04
2017-03-04T14:25:42.020Z,992.02
2017-03-04T14:26:51.964Z,992.01
2017-03-04T14:28:02.706Z,991.96
2017-03-04T14:29:11.883Z,991.91
2017-03-04T14:30:22.878Z,991.92
2017-03-04T14:31:33.237Z,991.93
2017-03-04T14:32:43.217Z,991.93
2017-03-04T14:33:53.166Z,991.89
2017-03-04T14:35:03.147Z,991.86
2017-03-04T14:36:12.962Z,991.88
2017-03-04T14:37:23.336Z,991.89
2017-03-04T14:38:34.155Z,991.82
2017-03-04T14:39:44.488Z,991.83
2017-03-04T14:40:54.065Z,991.82
2017-03-04T14:42:03.918Z,991.79
2017-03-04T14:43:14.676Z,991.81